sensor_id;sensor_type;location;lat;lon;timestamp;temperature;humidity
71175;DHT22;58876;51.994;4.472;2023-02-04T00:02:04;9.47;86.34
71175;DHT22;58876;51.994;4.472;2023-02-04T00:04:29;9.52;85.39
71175;DHT22;58876;51.994;4.472;2023-02-04T00:06:55;9.62;85.44
71175;DHT22;58876;51.994;4.472;2023-02-04T00:09:20;9.62;85.20
71175;DHT22;58876;51.994;4.472;2023-02-04T00:11:45;9.61;85.11
71175;DHT22;58876;51.994;4.472;2023-02-04T00:14:11;9.65;85.06
71175;DHT22;58876;51.994;4.472;2023-02-04T00:16:36;9.57;84.68
71175;DHT22;58876;51.994;4.472;2023-02-04T00:19:02;9.45;85.45
71175;DHT22;58876;51.994;4.472;2023-02-04T00:21:27;9.43;85.72
71175;DHT22;58876;51.994;4.472;2023-02-04T00:23:53;9.55;85.75
71175;DHT22;58876;51.994;4.472;2023-02-04T00:26:20;9.58;85.47
71175;DHT22;58876;51.994;4.472;2023-02-04T00:28:45;9.58;85.35
71175;DHT22;58876;51.994;4.472;2023-02-04T00:31:11;9.59;85.16
71175;DHT22;58876;51.994;4.472;2023-02-04T00:33:36;9.58;85.33
71175;DHT22;58876;51.994;4.472;2023-02-04T00:36:02;9.58;85.51
71175;DHT22;58876;51.994;4.472;2023-02-04T00:38:27;9.54;85.13
71175;DHT22;58876;51.994;4.472;2023-02-04T00:40:52;9.41;85.72
71175;DHT22;58876;51.994;4.472;2023-02-04T00:43:18;9.45;85.83
71175;DHT22;58876;51.994;4.472;2023-02-04T00:45:43;9.55;85.85
71175;DHT22;58876;51.994;4.472;2023-02-04T00:48:09;9.64;85.36
71175;DHT22;58876;51.994;4.472;2023-02-04T00:50:35;9.70;85.08
71175;DHT22;58876;51.994;4.472;2023-02-04T00:53:04;9.74;84.89
71175;DHT22;58876;51.994;4.472;2023-02-04T00:55:30;9.79;84.91
71175;DHT22;58876;51.994;4.472;2023-02-04T00:57:55;9.78;84.81
71175;DHT22;58876;51.994;4.472;2023-02-04T01:00:21;9.78;84.68
71175;DHT22;58876;51.994;4.472;2023-02-04T01:02:46;9.86;84.45
71175;DHT22;58876;51.994;4.472;2023-02-04T01:05:12;9.88;84.37
71175;DHT22;58876;51.994;4.472;2023-02-04T01:07:37;9.89;84.14
71175;DHT22;58876;51.994;4.472;2023-02-04T01:10:03;9.95;83.97
71175;DHT22;58876;51.994;4.472;2023-02-04T01:12:29;9.92;84.07
71175;DHT22;58876;51.994;4.472;2023-02-04T01:14:54;9.95;84.10
71175;DHT22;58876;51.994;4.472;2023-02-04T01:17:20;9.96;84.15
71175;DHT22;58876;51.994;4.472;2023-02-04T01:19:46;9.95;84.16
71175;DHT22;58876;51.994;4.472;2023-02-04T01:22:12;9.95;84.04
71175;DHT22;58876;51.994;4.472;2023-02-04T01:24:38;9.91;84.19
71175;DHT22;58876;51.994;4.472;2023-02-04T01:27:03;9.89;84.36
71175;DHT22;58876;51.994;4.472;2023-02-04T01:29:29;9.81;84.65
71175;DHT22;58876;51.994;4.472;2023-02-04T01:31:54;9.77;84.71
71175;DHT22;58876;51.994;4.472;2023-02-04T01:34:19;9.67;85.13
71175;DHT22;58876;51.994;4.472;2023-02-04T01:36:45;9.65;85.04
71175;DHT22;58876;51.994;4.472;2023-02-04T01:39:10;9.70;85.13
71175;DHT22;58876;51.994;4.472;2023-02-04T01:41:39;9.72;85.22
71175;DHT22;58876;51.994;4.472;2023-02-04T01:44:05;9.74;84.99
71175;DHT22;58876;51.994;4.472;2023-02-04T01:46:31;9.75;85.00
71175;DHT22;58876;51.994;4.472;2023-02-04T01:48:59;9.72;84.83
71175;DHT22;58876;51.994;4.472;2023-02-04T01:51:27;9.71;84.48
71175;DHT22;58876;51.994;4.472;2023-02-04T01:53:55;9.68;84.78
71175;DHT22;58876;51.994;4.472;2023-02-04T01:56:25;9.65;84.64
71175;DHT22;58876;51.994;4.472;2023-02-04T01:58:53;9.65;84.78
71175;DHT22;58876;51.994;4.472;2023-02-04T02:01:46;9.64;84.86
71175;DHT22;58876;51.994;4.472;2023-02-04T02:04:33;9.68;84.71
71175;DHT22;58876;51.994;4.472;2023-02-04T02:07:02;9.61;84.51
71175;DHT22;58876;51.994;4.472;2023-02-04T02:09:31;9.45;84.81
71175;DHT22;58876;51.994;4.472;2023-02-04T02:11:57;9.51;84.88
71175;DHT22;58876;51.994;4.472;2023-02-04T02:14:23;9.61;84.53
71175;DHT22;58876;51.994;4.472;2023-02-04T02:16:48;9.55;84.40
71175;DHT22;58876;51.994;4.472;2023-02-04T02:19:22;9.57;84.40
71175;DHT22;58876;51.994;4.472;2023-02-04T02:22:04;9.51;84.18
71175;DHT22;58876;51.994;4.472;2023-02-04T02:24:33;9.48;84.19
71175;DHT22;58876;51.994;4.472;2023-02-04T02:27:03;9.54;84.19
71175;DHT22;58876;51.994;4.472;2023-02-04T02:29:29;9.55;84.04
71175;DHT22;58876;51.994;4.472;2023-02-04T02:31:57;9.61;83.83
71175;DHT22;58876;51.994;4.472;2023-02-04T02:34:24;9.55;83.76
71175;DHT22;58876;51.994;4.472;2023-02-04T02:36:50;9.52;83.92
71175;DHT22;58876;51.994;4.472;2023-02-04T02:39:16;9.50;84.05
71175;DHT22;58876;51.994;4.472;2023-02-04T02:41:42;9.55;83.92
71175;DHT22;58876;51.994;4.472;2023-02-04T02:44:10;9.58;83.67
71175;DHT22;58876;51.994;4.472;2023-02-04T02:46:39;9.59;83.53
71175;DHT22;58876;51.994;4.472;2023-02-04T02:49:05;9.64;83.38
71175;DHT22;58876;51.994;4.472;2023-02-04T02:51:30;9.70;83.34
71175;DHT22;58876;51.994;4.472;2023-02-04T02:53:57;9.70;83.18
71175;DHT22;58876;51.994;4.472;2023-02-04T02:56:22;9.71;83.02
71175;DHT22;58876;51.994;4.472;2023-02-04T02:58:48;9.68;82.89
71175;DHT22;58876;51.994;4.472;2023-02-04T03:01:14;9.65;82.97
71175;DHT22;58876;51.994;4.472;2023-02-04T03:03:45;9.62;83.33
71175;DHT22;58876;51.994;4.472;2023-02-04T03:06:19;9.58;83.46
71175;DHT22;58876;51.994;4.472;2023-02-04T03:08:49;9.64;83.49
71175;DHT22;58876;51.994;4.472;2023-02-04T03:11:15;9.65;83.16
71175;DHT22;58876;51.994;4.472;2023-02-04T03:13:41;9.68;83.29
71175;DHT22;58876;51.994;4.472;2023-02-04T03:16:07;9.65;83.16
71175;DHT22;58876;51.994;4.472;2023-02-04T03:18:34;9.67;83.32
71175;DHT22;58876;51.994;4.472;2023-02-04T03:21:01;9.62;83.14
71175;DHT22;58876;51.994;4.472;2023-02-04T03:23:29;9.67;83.34
71175;DHT22;58876;51.994;4.472;2023-02-04T03:25:57;9.74;83.20
71175;DHT22;58876;51.994;4.472;2023-02-04T03:28:22;9.67;83.22
71175;DHT22;58876;51.994;4.472;2023-02-04T03:30:48;9.68;83.43
71175;DHT22;58876;51.994;4.472;2023-02-04T03:33:18;9.72;83.28
71175;DHT22;58876;51.994;4.472;2023-02-04T03:35:43;9.71;83.35
71175;DHT22;58876;51.994;4.472;2023-02-04T03:38:08;9.72;82.85
71175;DHT22;58876;51.994;4.472;2023-02-04T03:40:34;9.59;83.31
71175;DHT22;58876;51.994;4.472;2023-02-04T03:42:59;9.54;83.43
71175;DHT22;58876;51.994;4.472;2023-02-04T03:45:25;9.51;83.61
71175;DHT22;58876;51.994;4.472;2023-02-04T03:47:50;9.48;83.65
71175;DHT22;58876;51.994;4.472;2023-02-04T03:50:16;9.45;83.80
71175;DHT22;58876;51.994;4.472;2023-02-04T03:52:41;9.50;83.58
71175;DHT22;58876;51.994;4.472;2023-02-04T03:55:07;9.45;83.31
71175;DHT22;58876;51.994;4.472;2023-02-04T03:57:32;9.50;83.21
71175;DHT22;58876;51.994;4.472;2023-02-04T03:59:58;9.48;83.31
71175;DHT22;58876;51.994;4.472;2023-02-04T04:02:23;9.45;83.05
71175;DHT22;58876;51.994;4.472;2023-02-04T04:04:48;9.47;83.02
71175;DHT22;58876;51.994;4.472;2023-02-04T04:07:14;9.52;83.03
71175;DHT22;58876;51.994;4.472;2023-02-04T04:09:39;9.54;82.80
71175;DHT22;58876;51.994;4.472;2023-02-04T04:12:05;9.48;82.77
71175;DHT22;58876;51.994;4.472;2023-02-04T04:14:30;9.41;82.80
71175;DHT22;58876;51.994;4.472;2023-02-04T04:16:55;9.43;83.02
71175;DHT22;58876;51.994;4.472;2023-02-04T04:19:21;9.47;83.41
71175;DHT22;58876;51.994;4.472;2023-02-04T04:21:46;9.48;83.62
71175;DHT22;58876;51.994;4.472;2023-02-04T04:24:12;9.23;84.37
71175;DHT22;58876;51.994;4.472;2023-02-04T04:26:37;9.23;85.18
71175;DHT22;58876;51.994;4.472;2023-02-04T04:29:02;9.28;85.05
71175;DHT22;58876;51.994;4.472;2023-02-04T04:31:28;9.41;84.97
71175;DHT22;58876;51.994;4.472;2023-02-04T04:33:53;9.47;84.64
71175;DHT22;58876;51.994;4.472;2023-02-04T04:36:19;9.58;84.28
71175;DHT22;58876;51.994;4.472;2023-02-04T04:38:44;9.58;84.37
71175;DHT22;58876;51.994;4.472;2023-02-04T04:41:10;9.62;84.14
71175;DHT22;58876;51.994;4.472;2023-02-04T04:43:35;9.64;83.99
71175;DHT22;58876;51.994;4.472;2023-02-04T04:46:00;9.62;84.01
71175;DHT22;58876;51.994;4.472;2023-02-04T04:48:26;9.64;84.02
71175;DHT22;58876;51.994;4.472;2023-02-04T04:50:51;9.72;83.56
71175;DHT22;58876;51.994;4.472;2023-02-04T04:53:17;9.54;83.95
71175;DHT22;58876;51.994;4.472;2023-02-04T04:55:42;9.48;84.20
71175;DHT22;58876;51.994;4.472;2023-02-04T04:58:08;9.45;84.41
71175;DHT22;58876;51.994;4.472;2023-02-04T05:00:34;9.47;84.73
71175;DHT22;58876;51.994;4.472;2023-02-04T05:02:59;9.47;84.93
71175;DHT22;58876;51.994;4.472;2023-02-04T05:05:25;9.34;84.70
71175;DHT22;58876;51.994;4.472;2023-02-04T05:07:51;9.19;85.71
71175;DHT22;58876;51.994;4.472;2023-02-04T05:10:18;9.24;85.88
71175;DHT22;58876;51.994;4.472;2023-02-04T05:12:44;9.34;85.63
71175;DHT22;58876;51.994;4.472;2023-02-04T05:15:09;9.44;85.35
71175;DHT22;58876;51.994;4.472;2023-02-04T05:17:35;9.33;85.57
71175;DHT22;58876;51.994;4.472;2023-02-04T05:20:00;9.41;85.52
71175;DHT22;58876;51.994;4.472;2023-02-04T05:22:26;9.33;85.55
71175;DHT22;58876;51.994;4.472;2023-02-04T05:24:51;9.31;85.64
71175;DHT22;58876;51.994;4.472;2023-02-04T05:27:17;9.38;85.92
71175;DHT22;58876;51.994;4.472;2023-02-04T05:29:42;9.38;85.72
71175;DHT22;58876;51.994;4.472;2023-02-04T05:32:08;9.44;85.83
71175;DHT22;58876;51.994;4.472;2023-02-04T05:34:33;9.54;85.64
71175;DHT22;58876;51.994;4.472;2023-02-04T05:36:58;9.58;85.24
71175;DHT22;58876;51.994;4.472;2023-02-04T05:39:24;9.68;85.13
71175;DHT22;58876;51.994;4.472;2023-02-04T05:41:49;9.75;84.98
71175;DHT22;58876;51.994;4.472;2023-02-04T05:44:15;9.79;84.85
71175;DHT22;58876;51.994;4.472;2023-02-04T05:46:40;9.83;84.75
71175;DHT22;58876;51.994;4.472;2023-02-04T05:49:06;9.85;84.56
71175;DHT22;58876;51.994;4.472;2023-02-04T05:51:32;9.91;83.96
71175;DHT22;58876;51.994;4.472;2023-02-04T05:53:57;9.95;83.58
71175;DHT22;58876;51.994;4.472;2023-02-04T05:56:23;9.85;83.81
71175;DHT22;58876;51.994;4.472;2023-02-04T05:58:49;9.81;84.08
71175;DHT22;58876;51.994;4.472;2023-02-04T06:01:15;9.72;84.33
71175;DHT22;58876;51.994;4.472;2023-02-04T06:03:40;9.74;84.71
71175;DHT22;58876;51.994;4.472;2023-02-04T06:06:06;9.74;84.59
71175;DHT22;58876;51.994;4.472;2023-02-04T06:08:31;9.51;84.88
71175;DHT22;58876;51.994;4.472;2023-02-04T06:10:56;9.37;85.87
71175;DHT22;58876;51.994;4.472;2023-02-04T06:13:22;9.10;86.78
71175;DHT22;58876;51.994;4.472;2023-02-04T06:15:47;9.13;87.41
71175;DHT22;58876;51.994;4.472;2023-02-04T06:18:13;9.28;87.10
71175;DHT22;58876;51.994;4.472;2023-02-04T06:20:38;9.38;86.25
71175;DHT22;58876;51.994;4.472;2023-02-04T06:23:04;9.27;86.44
71175;DHT22;58876;51.994;4.472;2023-02-04T06:25:29;9.37;86.51
71175;DHT22;58876;51.994;4.472;2023-02-04T06:27:54;9.52;86.15
71175;DHT22;58876;51.994;4.472;2023-02-04T06:30:20;9.59;86.03
71175;DHT22;58876;51.994;4.472;2023-02-04T06:32:45;9.77;85.80
71175;DHT22;58876;51.994;4.472;2023-02-04T06:35:11;9.85;85.01
71175;DHT22;58876;51.994;4.472;2023-02-04T06:37:38;9.85;84.76
71175;DHT22;58876;51.994;4.472;2023-02-04T06:40:04;9.88;84.78
71175;DHT22;58876;51.994;4.472;2023-02-04T06:42:30;9.99;84.85
71175;DHT22;58876;51.994;4.472;2023-02-04T06:44:55;10.08;84.31
71175;DHT22;58876;51.994;4.472;2023-02-04T06:47:21;10.03;84.34
71175;DHT22;58876;51.994;4.472;2023-02-04T06:49:46;10.08;84.28
71175;DHT22;58876;51.994;4.472;2023-02-04T06:52:12;10.06;84.17
71175;DHT22;58876;51.994;4.472;2023-02-04T06:54:37;10.09;84.08
71175;DHT22;58876;51.994;4.472;2023-02-04T06:57:03;10.14;84.22
71175;DHT22;58876;51.994;4.472;2023-02-04T06:59:33;10.19;83.91
71175;DHT22;58876;51.994;4.472;2023-02-04T07:01:58;10.16;83.12
71175;DHT22;58876;51.994;4.472;2023-02-04T07:04:24;10.09;83.32
71175;DHT22;58876;51.994;4.472;2023-02-04T07:06:49;10.08;83.68
71175;DHT22;58876;51.994;4.472;2023-02-04T07:09:15;10.17;83.60
71175;DHT22;58876;51.994;4.472;2023-02-04T07:11:40;10.23;83.09
71175;DHT22;58876;51.994;4.472;2023-02-04T07:14:05;10.16;83.16
71175;DHT22;58876;51.994;4.472;2023-02-04T07:16:31;10.16;83.07
71175;DHT22;58876;51.994;4.472;2023-02-04T07:18:56;10.10;83.06
71175;DHT22;58876;51.994;4.472;2023-02-04T07:21:22;10.06;82.96
71175;DHT22;58876;51.994;4.472;2023-02-04T07:23:47;10.12;82.86
71175;DHT22;58876;51.994;4.472;2023-02-04T07:26:12;10.05;83.14
71175;DHT22;58876;51.994;4.472;2023-02-04T07:28:38;10.10;83.23
71175;DHT22;58876;51.994;4.472;2023-02-04T07:31:05;10.22;82.71
71175;DHT22;58876;51.994;4.472;2023-02-04T07:33:31;10.13;82.94
71175;DHT22;58876;51.994;4.472;2023-02-04T07:35:56;10.16;83.44
71175;DHT22;58876;51.994;4.472;2023-02-04T07:38:22;10.17;83.52
71175;DHT22;58876;51.994;4.472;2023-02-04T07:40:47;10.26;83.18
71175;DHT22;58876;51.994;4.472;2023-02-04T07:43:13;10.26;82.89
71175;DHT22;58876;51.994;4.472;2023-02-04T07:45:38;10.20;82.78
71175;DHT22;58876;51.994;4.472;2023-02-04T07:48:04;10.13;82.97
71175;DHT22;58876;51.994;4.472;2023-02-04T07:50:29;9.89;83.67
71175;DHT22;58876;51.994;4.472;2023-02-04T07:52:55;9.79;84.37
71175;DHT22;58876;51.994;4.472;2023-02-04T07:55:20;9.58;85.04
71175;DHT22;58876;51.994;4.472;2023-02-04T07:57:46;9.45;85.73
71175;DHT22;58876;51.994;4.472;2023-02-04T08:00:12;9.52;85.64
71175;DHT22;58876;51.994;4.472;2023-02-04T08:02:39;9.37;86.04
71175;DHT22;58876;51.994;4.472;2023-02-04T08:05:05;9.48;86.41
71175;DHT22;58876;51.994;4.472;2023-02-04T08:07:31;9.59;86.10
71175;DHT22;58876;51.994;4.472;2023-02-04T08:09:56;9.59;85.60
71175;DHT22;58876;51.994;4.472;2023-02-04T08:12:22;9.68;85.81
71175;DHT22;58876;51.994;4.472;2023-02-04T08:14:47;9.74;85.85
71175;DHT22;58876;51.994;4.472;2023-02-04T08:17:13;9.81;85.09
71175;DHT22;58876;51.994;4.472;2023-02-04T08:19:38;9.82;84.76
71175;DHT22;58876;51.994;4.472;2023-02-04T08:22:03;9.85;84.86
71175;DHT22;58876;51.994;4.472;2023-02-04T08:24:29;9.77;85.05
71175;DHT22;58876;51.994;4.472;2023-02-04T08:26:54;9.79;84.91
71175;DHT22;58876;51.994;4.472;2023-02-04T08:29:20;9.88;85.13
71175;DHT22;58876;51.994;4.472;2023-02-04T08:31:45;10.02;84.81
71175;DHT22;58876;51.994;4.472;2023-02-04T08:34:12;10.22;84.53
71175;DHT22;58876;51.994;4.472;2023-02-04T08:36:37;10.34;84.47
71175;DHT22;58876;51.994;4.472;2023-02-04T08:39:03;10.47;83.67
71175;DHT22;58876;51.994;4.472;2023-02-04T08:41:28;10.56;83.50
71175;DHT22;58876;51.994;4.472;2023-02-04T08:43:54;10.63;83.16
71175;DHT22;58876;51.994;4.472;2023-02-04T08:46:19;10.68;82.88
71175;DHT22;58876;51.994;4.472;2023-02-04T08:48:45;10.72;82.78
71175;DHT22;58876;51.994;4.472;2023-02-04T08:51:10;10.82;82.83
71175;DHT22;58876;51.994;4.472;2023-02-04T08:53:35;10.91;82.26
71175;DHT22;58876;51.994;4.472;2023-02-04T08:56:02;10.98;82.12
71175;DHT22;58876;51.994;4.472;2023-02-04T08:58:27;11.02;82.16
71175;DHT22;58876;51.994;4.472;2023-02-04T09:00:52;11.12;81.78
71175;DHT22;58876;51.994;4.472;2023-02-04T09:03:18;11.16;81.74
71175;DHT22;58876;51.994;4.472;2023-02-04T09:05:43;11.18;81.72
71175;DHT22;58876;51.994;4.472;2023-02-04T09:08:09;11.23;81.29
71175;DHT22;58876;51.994;4.472;2023-02-04T09:10:34;11.35;81.57
71175;DHT22;58876;51.994;4.472;2023-02-04T09:13:00;11.43;81.05
71175;DHT22;58876;51.994;4.472;2023-02-04T09:15:25;11.47;80.97
71175;DHT22;58876;51.994;4.472;2023-02-04T09:17:51;11.50;80.78
71175;DHT22;58876;51.994;4.472;2023-02-04T09:20:19;11.58;80.40
71175;DHT22;58876;51.994;4.472;2023-02-04T09:22:45;11.65;80.19
71175;DHT22;58876;51.994;4.472;2023-02-04T09:25:12;11.63;80.05
71175;DHT22;58876;51.994;4.472;2023-02-04T09:27:38;11.66;80.05
71175;DHT22;58876;51.994;4.472;2023-02-04T09:30:03;11.63;79.53
71175;DHT22;58876;51.994;4.472;2023-02-04T09:32:29;11.58;79.53
71175;DHT22;58876;51.994;4.472;2023-02-04T09:34:55;11.32;79.33
71175;DHT22;58876;51.994;4.472;2023-02-04T09:37:20;11.11;80.47
71175;DHT22;58876;51.994;4.472;2023-02-04T09:39:46;11.14;81.04
71175;DHT22;58876;51.994;4.472;2023-02-04T09:42:13;11.07;81.05
71175;DHT22;58876;51.994;4.472;2023-02-04T09:44:40;11.09;81.18
71175;DHT22;58876;51.994;4.472;2023-02-04T09:47:05;11.14;80.57
71175;DHT22;58876;51.994;4.472;2023-02-04T09:49:31;11.08;80.54
71175;DHT22;58876;51.994;4.472;2023-02-04T09:51:56;11.01;80.40
71175;DHT22;58876;51.994;4.472;2023-02-04T09:54:24;11.05;81.10
71175;DHT22;58876;51.994;4.472;2023-02-04T09:56:51;11.12;80.99
71175;DHT22;58876;51.994;4.472;2023-02-04T09:59:22;11.18;81.18
71175;DHT22;58876;51.994;4.472;2023-02-04T10:01:56;11.28;80.82
71175;DHT22;58876;51.994;4.472;2023-02-04T10:04:23;11.39;81.30
71175;DHT22;58876;51.994;4.472;2023-02-04T10:06:49;11.52;81.30
71175;DHT22;58876;51.994;4.472;2023-02-04T10:09:16;11.71;80.51
71175;DHT22;58876;51.994;4.472;2023-02-04T10:11:44;11.76;80.31
71175;DHT22;58876;51.994;4.472;2023-02-04T10:14:14;11.81;79.91
71175;DHT22;58876;51.994;4.472;2023-02-04T10:16:42;11.81;79.75
71175;DHT22;58876;51.994;4.472;2023-02-04T10:19:13;11.76;79.37
71175;DHT22;58876;51.994;4.472;2023-02-04T10:21:42;11.76;79.28
71175;DHT22;58876;51.994;4.472;2023-02-04T10:24:20;11.77;79.34
71175;DHT22;58876;51.994;4.472;2023-02-04T10:26:47;11.74;78.79
71175;DHT22;58876;51.994;4.472;2023-02-04T10:29:16;11.71;78.55
71175;DHT22;58876;51.994;4.472;2023-02-04T10:31:45;11.69;78.74
71175;DHT22;58876;51.994;4.472;2023-02-04T10:34:20;11.60;79.20
71175;DHT22;58876;51.994;4.472;2023-02-04T10:36:49;11.60;79.52
71175;DHT22;58876;51.994;4.472;2023-02-04T10:39:17;11.53;79.57
71175;DHT22;58876;51.994;4.472;2023-02-04T10:44:17;11.50;79.24
71175;DHT22;58876;51.994;4.472;2023-02-04T10:46:43;11.44;78.89
71175;DHT22;58876;51.994;4.472;2023-02-04T10:49:23;11.38;78.99
71175;DHT22;58876;51.994;4.472;2023-02-04T10:51:50;11.40;79.67
71175;DHT22;58876;51.994;4.472;2023-02-04T10:54:21;11.44;79.97
71175;DHT22;58876;51.994;4.472;2023-02-04T10:59:42;11.59;80.00
71175;DHT22;58876;51.994;4.472;2023-02-04T11:02:42;11.60;79.44
71175;DHT22;58876;51.994;4.472;2023-02-04T11:05:16;11.59;79.89
71175;DHT22;58876;51.994;4.472;2023-02-04T11:07:44;11.62;80.33
71175;DHT22;58876;51.994;4.472;2023-02-04T11:10:13;11.74;80.00
71175;DHT22;58876;51.994;4.472;2023-02-04T11:20:45;11.91;79.10
71175;DHT22;58876;51.994;4.472;2023-02-04T11:26:33;12.08;77.98
71175;DHT22;58876;51.994;4.472;2023-02-04T11:34:25;12.13;77.43
71175;DHT22;58876;51.994;4.472;2023-02-04T11:37:03;12.21;76.82
71175;DHT22;58876;51.994;4.472;2023-02-04T11:39:56;12.24;76.19
71175;DHT22;58876;51.994;4.472;2023-02-04T11:44:58;12.31;76.23
71175;DHT22;58876;51.994;4.472;2023-02-04T11:47:26;12.42;76.51
71175;DHT22;58876;51.994;4.472;2023-02-04T11:50:02;12.45;76.07
71175;DHT22;58876;51.994;4.472;2023-02-04T11:52:27;12.53;75.78
71175;DHT22;58876;51.994;4.472;2023-02-04T11:54:59;12.39;75.05
71175;DHT22;58876;51.994;4.472;2023-02-04T11:57:26;12.31;75.03
71175;DHT22;58876;51.994;4.472;2023-02-04T11:59:52;12.18;74.54
71175;DHT22;58876;51.994;4.472;2023-02-04T12:02:22;12.11;76.31
71175;DHT22;58876;51.994;4.472;2023-02-04T12:04:53;12.21;76.75
71175;DHT22;58876;51.994;4.472;2023-02-04T12:07:28;12.18;76.75
71175;DHT22;58876;51.994;4.472;2023-02-04T12:09:55;12.24;76.15
71175;DHT22;58876;51.994;4.472;2023-02-04T12:12:28;12.18;76.59
71175;DHT22;58876;51.994;4.472;2023-02-04T12:15:08;12.24;76.55
71175;DHT22;58876;51.994;4.472;2023-02-04T12:17:37;12.27;76.95
71175;DHT22;58876;51.994;4.472;2023-02-04T12:20:03;12.22;76.32
71175;DHT22;58876;51.994;4.472;2023-02-04T12:22:28;12.05;76.08
71175;DHT22;58876;51.994;4.472;2023-02-04T12:24:54;11.91;76.34
71175;DHT22;58876;51.994;4.472;2023-02-04T12:27:19;11.97;77.96
71175;DHT22;58876;51.994;4.472;2023-02-04T12:29:45;12.00;77.51
71175;DHT22;58876;51.994;4.472;2023-02-04T12:32:10;11.98;77.72
71175;DHT22;58876;51.994;4.472;2023-02-04T12:34:36;11.94;77.76
71175;DHT22;58876;51.994;4.472;2023-02-04T12:37:04;12.11;78.14
71175;DHT22;58876;51.994;4.472;2023-02-04T12:39:29;12.22;77.69
71175;DHT22;58876;51.994;4.472;2023-02-04T12:41:56;12.28;77.51
71175;DHT22;58876;51.994;4.472;2023-02-04T12:44:21;12.25;76.40
71175;DHT22;58876;51.994;4.472;2023-02-04T12:46:47;12.21;76.84
71175;DHT22;58876;51.994;4.472;2023-02-04T12:49:12;12.20;76.60
71175;DHT22;58876;51.994;4.472;2023-02-04T12:51:38;12.14;77.49
71175;DHT22;58876;51.994;4.472;2023-02-04T12:54:03;12.24;77.96
71175;DHT22;58876;51.994;4.472;2023-02-04T12:56:29;12.10;77.20
71175;DHT22;58876;51.994;4.472;2023-02-04T12:58:54;11.95;77.74
71175;DHT22;58876;51.994;4.472;2023-02-04T13:01:20;11.93;78.12
71175;DHT22;58876;51.994;4.472;2023-02-04T13:03:45;11.93;77.78
71175;DHT22;58876;51.994;4.472;2023-02-04T13:06:10;11.77;78.20
71175;DHT22;58876;51.994;4.472;2023-02-04T13:08:38;11.79;78.64
71175;DHT22;58876;51.994;4.472;2023-02-04T13:11:04;11.81;78.88
71175;DHT22;58876;51.994;4.472;2023-02-04T13:13:29;11.83;78.30
71175;DHT22;58876;51.994;4.472;2023-02-04T13:15:55;11.79;78.68
71175;DHT22;58876;51.994;4.472;2023-02-04T13:18:20;11.87;78.22
71175;DHT22;58876;51.994;4.472;2023-02-04T13:20:45;11.77;78.50
71175;DHT22;58876;51.994;4.472;2023-02-04T13:23:11;11.62;78.37
71175;DHT22;58876;51.994;4.472;2023-02-04T13:25:37;11.36;78.64
71175;DHT22;58876;51.994;4.472;2023-02-04T13:28:02;11.36;79.09
71175;DHT22;58876;51.994;4.472;2023-02-04T13:30:27;11.47;78.97
71175;DHT22;58876;51.994;4.472;2023-02-04T13:32:53;11.43;79.04
71175;DHT22;58876;51.994;4.472;2023-02-04T13:35:18;11.44;79.40
71175;DHT22;58876;51.994;4.472;2023-02-04T13:37:44;11.39;78.96
71175;DHT22;58876;51.994;4.472;2023-02-04T13:40:10;11.39;79.83
71175;DHT22;58876;51.994;4.472;2023-02-04T13:42:39;11.52;79.29
71175;DHT22;58876;51.994;4.472;2023-02-04T13:45:05;11.63;79.20
71175;DHT22;58876;51.994;4.472;2023-02-04T13:47:31;11.71;79.10
71175;DHT22;58876;51.994;4.472;2023-02-04T13:49:57;11.79;78.49
71175;DHT22;58876;51.994;4.472;2023-02-04T13:52:22;11.84;77.97
71175;DHT22;58876;51.994;4.472;2023-02-04T13:54:48;11.70;77.81
71175;DHT22;58876;51.994;4.472;2023-02-04T13:57:13;11.71;77.99
71175;DHT22;58876;51.994;4.472;2023-02-04T13:59:39;11.71;77.71
71175;DHT22;58876;51.994;4.472;2023-02-04T14:02:04;11.65;78.01
71175;DHT22;58876;51.994;4.472;2023-02-04T14:04:30;11.76;78.19
71175;DHT22;58876;51.994;4.472;2023-02-04T14:06:55;11.73;77.13
71175;DHT22;58876;51.994;4.472;2023-02-04T14:09:21;11.76;77.49
71175;DHT22;58876;51.994;4.472;2023-02-04T14:11:47;11.83;77.92
71175;DHT22;58876;51.994;4.472;2023-02-04T14:14:13;11.83;77.70
71175;DHT22;58876;51.994;4.472;2023-02-04T14:16:38;11.98;77.36
71175;DHT22;58876;51.994;4.472;2023-02-04T14:19:04;12.04;77.34
71175;DHT22;58876;51.994;4.472;2023-02-04T14:21:30;12.13;76.85
71175;DHT22;58876;51.994;4.472;2023-02-04T14:23:55;12.01;76.66
71175;DHT22;58876;51.994;4.472;2023-02-04T14:26:21;11.97;76.79
71175;DHT22;58876;51.994;4.472;2023-02-04T14:28:47;12.02;77.30
71175;DHT22;58876;51.994;4.472;2023-02-04T14:31:12;12.02;77.05
71175;DHT22;58876;51.994;4.472;2023-02-04T14:33:37;12.08;77.12
71175;DHT22;58876;51.994;4.472;2023-02-04T14:36:03;12.20;76.99
71175;DHT22;58876;51.994;4.472;2023-02-04T14:38:28;12.04;76.59
71175;DHT22;58876;51.994;4.472;2023-02-04T14:40:56;12.01;77.03
71175;DHT22;58876;51.994;4.472;2023-02-04T14:43:22;12.00;77.36
71175;DHT22;58876;51.994;4.472;2023-02-04T14:45:48;12.00;77.48
71175;DHT22;58876;51.994;4.472;2023-02-04T14:48:13;12.01;77.30
71175;DHT22;58876;51.994;4.472;2023-02-04T14:50:39;11.91;77.20
71175;DHT22;58876;51.994;4.472;2023-02-04T14:53:04;11.94;77.74
71175;DHT22;58876;51.994;4.472;2023-02-04T14:55:30;12.00;77.67
71175;DHT22;58876;51.994;4.472;2023-02-04T14:57:55;12.05;77.25
71175;DHT22;58876;51.994;4.472;2023-02-04T15:00:21;11.98;76.93
71175;DHT22;58876;51.994;4.472;2023-02-04T15:02:46;11.43;77.84
71175;DHT22;58876;51.994;4.472;2023-02-04T15:05:12;11.21;79.46
71175;DHT22;58876;51.994;4.472;2023-02-04T15:07:39;11.19;79.73
71175;DHT22;58876;51.994;4.472;2023-02-04T15:10:05;11.22;79.65
71175;DHT22;58876;51.994;4.472;2023-02-04T15:12:30;11.32;79.82
71175;DHT22;58876;51.994;4.472;2023-02-04T15:14:56;11.40;79.87
71175;DHT22;58876;51.994;4.472;2023-02-04T15:17:21;11.49;79.31
71175;DHT22;58876;51.994;4.472;2023-02-04T15:19:47;11.60;79.10
71175;DHT22;58876;51.994;4.472;2023-02-04T15:22:12;11.56;78.57
71175;DHT22;58876;51.994;4.472;2023-02-04T15:24:38;11.40;78.89
71175;DHT22;58876;51.994;4.472;2023-02-04T15:27:04;11.16;79.61
71175;DHT22;58876;51.994;4.472;2023-02-04T15:29:30;11.09;80.42
71175;DHT22;58876;51.994;4.472;2023-02-04T15:31:56;11.22;80.49
71175;DHT22;58876;51.994;4.472;2023-02-04T15:34:21;11.35;79.80
71175;DHT22;58876;51.994;4.472;2023-02-04T15:36:47;11.31;79.42
71175;DHT22;58876;51.994;4.472;2023-02-04T15:39:12;11.32;79.28
71175;DHT22;58876;51.994;4.472;2023-02-04T15:41:38;11.19;79.27
71175;DHT22;58876;51.994;4.472;2023-02-04T15:44:03;11.09;79.86
71175;DHT22;58876;51.994;4.472;2023-02-04T15:46:30;11.09;79.81
71175;DHT22;58876;51.994;4.472;2023-02-04T15:48:56;11.09;79.78
71175;DHT22;58876;51.994;4.472;2023-02-04T15:51:21;11.22;79.64
71175;DHT22;58876;51.994;4.472;2023-02-04T15:53:47;11.26;79.66
71175;DHT22;58876;51.994;4.472;2023-02-04T15:56:12;11.33;79.49
71175;DHT22;58876;51.994;4.472;2023-02-04T15:58:41;11.38;79.36